sensor_id;sensor_type;location;lat;lon;timestamp;pressure;altitude;pressure_sealevel;temperature;humidity
10518;BME280;5307;42.548;22.968;2023-05-09T00:02:03;94085.31;;;12.18;100.00
10518;BME280;5307;42.548;22.968;2023-05-09T00:04:31;94085.84;;;11.95;100.00
10518;BME280;5307;42.548;22.968;2023-05-09T00:06:59;94088.06;;;12.18;100.00
10518;BME280;5307;42.548;22.968;2023-05-09T00:09:26;94090.78;;;12.18;100.00
10518;BME280;5307;42.548;22.968;2023-05-09T00:11:53;94084.19;;;11.97;100.00
10518;BME280;5307;42.548;22.968;2023-05-09T00:14:20;94069.75;;;11.97;100.00
10518;BME280;5307;42.548;22.968;2023-05-09T00:16:49;94068.84;;;12.09;100.00
10518;BME280;5307;42.548;22.968;2023-05-09T00:19:16;94079.34;;;12.10;100.00
10518;BME280;5307;42.548;22.968;2023-05-09T00:21:45;94071.94;;;12.11;100.00
10518;BME280;5307;42.548;22.968;2023-05-09T00:24:11;94070.06;;;11.99;100.00
10518;BME280;5307;42.548;22.968;2023-05-09T00:26:38;94063.97;;;12.04;100.00
10518;BME280;5307;42.548;22.968;2023-05-09T00:29:05;94064.59;;;12.08;100.00
10518;BME280;5307;42.548;22.968;2023-05-09T00:31:32;94057.38;;;11.83;100.00
10518;BME280;5307;42.548;22.968;2023-05-09T00:33:59;94060.59;;;11.91;100.00
10518;BME280;5307;42.548;22.968;2023-05-09T00:36:25;94063.06;;;11.98;100.00
10518;BME280;5307;42.548;22.968;2023-05-09T00:38:54;94058.16;;;11.93;100.00
10518;BME280;5307;42.548;22.968;2023-05-09T00:41:20;94066.53;;;11.67;100.00
10518;BME280;5307;42.548;22.968;2023-05-09T00:43:47;94065.69;;;11.79;100.00
10518;BME280;5307;42.548;22.968;2023-05-09T00:46:14;94067.41;;;11.86;100.00
10518;BME280;5307;42.548;22.968;2023-05-09T00:48:41;94071.59;;;11.78;100.00
10518;BME280;5307;42.548;22.968;2023-05-09T00:51:08;94079.63;;;11.72;100.00
10518;BME280;5307;42.548;22.968;2023-05-09T00:53:35;94075.84;;;11.70;100.00
10518;BME280;5307;42.548;22.968;2023-05-09T00:56:03;94074.06;;;11.54;100.00
10518;BME280;5307;42.548;22.968;2023-05-09T00:58:30;94079.00;;;11.68;100.00
10518;BME280;5307;42.548;22.968;2023-05-09T01:00:57;94070.38;;;11.70;100.00
10518;BME280;5307;42.548;22.968;2023-05-09T01:03:26;94073.50;;;11.59;100.00
10518;BME280;5307;42.548;22.968;2023-05-09T01:05:59;94070.47;;;11.66;100.00
10518;BME280;5307;42.548;22.968;2023-05-09T01:08:35;94062.25;;;11.57;100.00
10518;BME280;5307;42.548;22.968;2023-05-09T01:11:10;94067.34;;;11.46;100.00
10518;BME280;5307;42.548;22.968;2023-05-09T01:13:45;94061.59;;;11.53;100.00
10518;BME280;5307;42.548;22.968;2023-05-09T01:16:20;94064.31;;;11.53;100.00
10518;BME280;5307;42.548;22.968;2023-05-09T01:18:54;94071.06;;;11.61;100.00
10518;BME280;5307;42.548;22.968;2023-05-09T01:21:27;94075.59;;;11.55;100.00
10518;BME280;5307;42.548;22.968;2023-05-09T01:27:09;94075.41;;;11.49;100.00
10518;BME280;5307;42.548;22.968;2023-05-09T01:29:43;94070.28;;;11.29;100.00
10518;BME280;5307;42.548;22.968;2023-05-09T01:32:13;94077.78;;;11.16;100.00
10518;BME280;5307;42.548;22.968;2023-05-09T01:34:43;94068.00;;;11.06;100.00
10518;BME280;5307;42.548;22.968;2023-05-09T01:37:12;94062.03;;;11.20;100.00
10518;BME280;5307;42.548;22.968;2023-05-09T01:39:41;94056.16;;;11.09;100.00
10518;BME280;5307;42.548;22.968;2023-05-09T01:42:10;94063.69;;;11.18;100.00
10518;BME280;5307;42.548;22.968;2023-05-09T01:44:41;94072.72;;;11.27;100.00
10518;BME280;5307;42.548;22.968;2023-05-09T01:47:09;94069.97;;;11.27;100.00
10518;BME280;5307;42.548;22.968;2023-05-09T01:49:37;94071.81;;;11.30;100.00
10518;BME280;5307;42.548;22.968;2023-05-09T01:52:08;94069.38;;;11.33;100.00
10518;BME280;5307;42.548;22.968;2023-05-09T01:54:37;94059.34;;;11.29;100.00
10518;BME280;5307;42.548;22.968;2023-05-09T01:57:06;94073.66;;;11.34;100.00
10518;BME280;5307;42.548;22.968;2023-05-09T01:59:34;94079.28;;;11.39;100.00
10518;BME280;5307;42.548;22.968;2023-05-09T02:02:03;94082.69;;;11.43;100.00
10518;BME280;5307;42.548;22.968;2023-05-09T02:04:32;94081.00;;;11.46;100.00
10518;BME280;5307;42.548;22.968;2023-05-09T02:07:00;94082.69;;;11.21;100.00
10518;BME280;5307;42.548;22.968;2023-05-09T02:09:27;94076.25;;;11.37;100.00
10518;BME280;5307;42.548;22.968;2023-05-09T02:11:54;94072.63;;;11.40;100.00
10518;BME280;5307;42.548;22.968;2023-05-09T02:14:21;94075.16;;;11.35;100.00
10518;BME280;5307;42.548;22.968;2023-05-09T02:16:47;94080.91;;;11.27;100.00
10518;BME280;5307;42.548;22.968;2023-05-09T02:19:17;94073.47;;;11.28;100.00
10518;BME280;5307;42.548;22.968;2023-05-09T02:21:43;94075.75;;;11.08;100.00
10518;BME280;5307;42.548;22.968;2023-05-09T02:24:10;94083.50;;;11.09;100.00
10518;BME280;5307;42.548;22.968;2023-05-09T02:26:39;94085.38;;;11.12;100.00
10518;BME280;5307;42.548;22.968;2023-05-09T02:29:06;94080.78;;;11.09;100.00
10518;BME280;5307;42.548;22.968;2023-05-09T02:31:34;94085.88;;;10.98;100.00
10518;BME280;5307;42.548;22.968;2023-05-09T02:34:02;94078.84;;;10.97;100.00
10518;BME280;5307;42.548;22.968;2023-05-09T02:36:31;94087.56;;;11.05;100.00
10518;BME280;5307;42.548;22.968;2023-05-09T02:38:59;94091.25;;;10.89;100.00
10518;BME280;5307;42.548;22.968;2023-05-09T02:41:26;94085.53;;;10.96;100.00
10518;BME280;5307;42.548;22.968;2023-05-09T02:43:53;94092.50;;;10.97;100.00
10518;BME280;5307;42.548;22.968;2023-05-09T02:46:20;94093.81;;;11.05;100.00
10518;BME280;5307;42.548;22.968;2023-05-09T02:48:47;94100.16;;;11.02;100.00
10518;BME280;5307;42.548;22.968;2023-05-09T02:51:14;94104.56;;;10.99;100.00
10518;BME280;5307;42.548;22.968;2023-05-09T02:53:42;94104.88;;;11.02;100.00
10518;BME280;5307;42.548;22.968;2023-05-09T02:56:09;94096.31;;;11.12;100.00
10518;BME280;5307;42.548;22.968;2023-05-09T02:58:36;94105.38;;;11.09;100.00
10518;BME280;5307;42.548;22.968;2023-05-09T03:01:02;94100.78;;;11.06;100.00
10518;BME280;5307;42.548;22.968;2023-05-09T03:03:31;94097.44;;;11.02;100.00
10518;BME280;5307;42.548;22.968;2023-05-09T03:05:59;94096.41;;;11.09;100.00
10518;BME280;5307;42.548;22.968;2023-05-09T03:08:25;94097.31;;;11.06;100.00
10518;BME280;5307;42.548;22.968;2023-05-09T03:10:53;94094.69;;;11.02;100.00
10518;BME280;5307;42.548;22.968;2023-05-09T03:13:20;94101.06;;;10.99;100.00
10518;BME280;5307;42.548;22.968;2023-05-09T03:15:47;94103.72;;;10.90;100.00
10518;BME280;5307;42.548;22.968;2023-05-09T03:18:14;94104.59;;;10.87;100.00
10518;BME280;5307;42.548;22.968;2023-05-09T03:20:41;94111.09;;;11.02;100.00
10518;BME280;5307;42.548;22.968;2023-05-09T03:23:07;94114.00;;;10.86;100.00
10518;BME280;5307;42.548;22.968;2023-05-09T03:25:35;94121.41;;;10.98;100.00
10518;BME280;5307;42.548;22.968;2023-05-09T03:28:03;94118.56;;;10.89;100.00
10518;BME280;5307;42.548;22.968;2023-05-09T03:30:30;94121.47;;;10.73;100.00
10518;BME280;5307;42.548;22.968;2023-05-09T03:32:57;94118.56;;;10.89;100.00
10518;BME280;5307;42.548;22.968;2023-05-09T03:35:40;94115.44;;;10.78;100.00
10518;BME280;5307;42.548;22.968;2023-05-09T03:38:07;94117.94;;;10.85;100.00
10518;BME280;5307;42.548;22.968;2023-05-09T03:47:10;94121.19;;;10.92;100.00
10518;BME280;5307;42.548;22.968;2023-05-09T03:49:37;94119.84;;;10.97;100.00
10518;BME280;5307;42.548;22.968;2023-05-09T03:52:04;94123.22;;;11.01;100.00
10518;BME280;5307;42.548;22.968;2023-05-09T03:54:31;94118.97;;;11.00;100.00
10518;BME280;5307;42.548;22.968;2023-05-09T03:56:58;94118.72;;;11.07;100.00
10518;BME280;5307;42.548;22.968;2023-05-09T03:59:24;94110.59;;;11.16;100.00
10518;BME280;5307;42.548;22.968;2023-05-09T04:01:51;94111.97;;;11.21;100.00
10518;BME280;5307;42.548;22.968;2023-05-09T04:04:19;94113.06;;;11.23;100.00
10518;BME280;5307;42.548;22.968;2023-05-09T04:06:46;94119.25;;;11.15;100.00
10518;BME280;5307;42.548;22.968;2023-05-09T04:09:13;94112.75;;;11.21;100.00
10518;BME280;5307;42.548;22.968;2023-05-09T04:11:40;94113.53;;;11.44;100.00
10518;BME280;5307;42.548;22.968;2023-05-09T04:14:07;94109.19;;;11.55;100.00
10518;BME280;5307;42.548;22.968;2023-05-09T04:16:33;94106.38;;;11.46;100.00
10518;BME280;5307;42.548;22.968;2023-05-09T04:19:00;94102.19;;;11.33;100.00
10518;BME280;5307;42.548;22.968;2023-05-09T04:21:29;94115.28;;;11.38;100.00
10518;BME280;5307;42.548;22.968;2023-05-09T04:23:56;94107.91;;;11.47;100.00
10518;BME280;5307;42.548;22.968;2023-05-09T04:26:23;94112.72;;;11.65;100.00
10518;BME280;5307;42.548;22.968;2023-05-09T04:28:50;94107.06;;;11.59;100.00
10518;BME280;5307;42.548;22.968;2023-05-09T04:31:17;94103.75;;;11.65;100.00
10518;BME280;5307;42.548;22.968;2023-05-09T04:33:44;94105.19;;;11.78;100.00
10518;BME280;5307;42.548;22.968;2023-05-09T04:36:11;94114.56;;;11.68;100.00
10518;BME280;5307;42.548;22.968;2023-05-09T04:38:39;94108.06;;;11.75;100.00
10518;BME280;5307;42.548;22.968;2023-05-09T04:41:06;94101.66;;;11.69;100.00
10518;BME280;5307;42.548;22.968;2023-05-09T04:43:33;94112.88;;;11.83;100.00
10518;BME280;5307;42.548;22.968;2023-05-09T04:45:59;94110.50;;;12.04;100.00
10518;BME280;5307;42.548;22.968;2023-05-09T04:48:26;94105.50;;;12.02;100.00
10518;BME280;5307;42.548;22.968;2023-05-09T04:50:53;94103.22;;;12.10;100.00
10518;BME280;5307;42.548;22.968;2023-05-09T04:53:20;94108.94;;;12.25;100.00
10518;BME280;5307;42.548;22.968;2023-05-09T04:55:48;94107.88;;;12.31;100.00
10518;BME280;5307;42.548;22.968;2023-05-09T04:58:18;94100.28;;;12.35;100.00
10518;BME280;5307;42.548;22.968;2023-05-09T05:00:58;94093.72;;;12.33;100.00
10518;BME280;5307;42.548;22.968;2023-05-09T05:03:28;94100.19;;;12.57;100.00
10518;BME280;5307;42.548;22.968;2023-05-09T05:05:57;94100.63;;;12.56;100.00
10518;BME280;5307;42.548;22.968;2023-05-09T05:08:24;94096.25;;;12.67;100.00
10518;BME280;5307;42.548;22.968;2023-05-09T05:10:55;94086.97;;;12.74;100.00
10518;BME280;5307;42.548;22.968;2023-05-09T05:13:22;94084.84;;;12.96;100.00
10518;BME280;5307;42.548;22.968;2023-05-09T05:15:49;94101.75;;;13.13;100.00
10518;BME280;5307;42.548;22.968;2023-05-09T05:18:16;94086.53;;;13.30;96.94
10518;BME280;5307;42.548;22.968;2023-05-09T05:20:43;94091.22;;;13.48;96.47
10518;BME280;5307;42.548;22.968;2023-05-09T05:23:10;94089.28;;;13.40;93.36
10518;BME280;5307;42.548;22.968;2023-05-09T05:25:37;94078.91;;;13.34;90.91
10518;BME280;5307;42.548;22.968;2023-05-09T05:28:05;94073.53;;;13.58;91.30
10518;BME280;5307;42.548;22.968;2023-05-09T05:30:32;94075.78;;;13.69;89.05
10518;BME280;5307;42.548;22.968;2023-05-09T05:32:59;94071.00;;;13.79;87.52
10518;BME280;5307;42.548;22.968;2023-05-09T05:35:26;94069.53;;;14.11;86.23
10518;BME280;5307;42.548;22.968;2023-05-09T05:37:53;94064.63;;;14.15;84.67
10518;BME280;5307;42.548;22.968;2023-05-09T05:40:20;94068.28;;;14.54;83.33
10518;BME280;5307;42.548;22.968;2023-05-09T05:42:47;94068.63;;;14.95;82.98
10518;BME280;5307;42.548;22.968;2023-05-09T05:45:18;94070.91;;;14.72;81.17
10518;BME280;5307;42.548;22.968;2023-05-09T05:47:45;94074.47;;;14.64;81.59
10518;BME280;5307;42.548;22.968;2023-05-09T05:50:11;94071.09;;;14.69;80.68
10518;BME280;5307;42.548;22.968;2023-05-09T05:52:38;94063.81;;;14.80;81.18
10518;BME280;5307;42.548;22.968;2023-05-09T05:55:06;94070.56;;;14.79;80.72
10518;BME280;5307;42.548;22.968;2023-05-09T05:57:33;94070.84;;;14.81;80.31
10518;BME280;5307;42.548;22.968;2023-05-09T06:00:02;94075.47;;;15.14;78.92
10518;BME280;5307;42.548;22.968;2023-05-09T06:02:32;94073.28;;;15.86;77.85
10518;BME280;5307;42.548;22.968;2023-05-09T06:04:58;94070.44;;;15.81;75.59
10518;BME280;5307;42.548;22.968;2023-05-09T06:07:26;94071.09;;;15.76;74.40
10518;BME280;5307;42.548;22.968;2023-05-09T06:09:53;94059.03;;;15.88;73.02
10518;BME280;5307;42.548;22.968;2023-05-09T06:12:19;94058.38;;;15.78;72.18
10518;BME280;5307;42.548;22.968;2023-05-09T06:14:46;94070.16;;;15.93;72.12
10518;BME280;5307;42.548;22.968;2023-05-09T06:17:13;94061.66;;;16.12;70.64
10518;BME280;5307;42.548;22.968;2023-05-09T06:19:41;94068.63;;;16.42;70.62
10518;BME280;5307;42.548;22.968;2023-05-09T06:22:08;94076.63;;;16.40;69.31
10518;BME280;5307;42.548;22.968;2023-05-09T06:24:35;94065.03;;;16.36;68.37
10518;BME280;5307;42.548;22.968;2023-05-09T06:27:02;94057.91;;;16.65;69.78
10518;BME280;5307;42.548;22.968;2023-05-09T06:29:29;94068.22;;;17.05;67.47
10518;BME280;5307;42.548;22.968;2023-05-09T06:31:56;94074.34;;;16.59;66.20
10518;BME280;5307;42.548;22.968;2023-05-09T06:34:23;94073.16;;;16.10;66.68
10518;BME280;5307;42.548;22.968;2023-05-09T06:36:51;94064.03;;;16.54;66.08
10518;BME280;5307;42.548;22.968;2023-05-09T06:39:18;94066.19;;;17.26;65.40
10518;BME280;5307;42.548;22.968;2023-05-09T06:41:44;94077.03;;;17.09;65.34
10518;BME280;5307;42.548;22.968;2023-05-09T06:44:11;94067.25;;;17.80;63.05
10518;BME280;5307;42.548;22.968;2023-05-09T06:46:38;94067.81;;;17.38;63.54
10518;BME280;5307;42.548;22.968;2023-05-09T06:49:05;94068.09;;;17.40;61.75
10518;BME280;5307;42.548;22.968;2023-05-09T06:51:31;94072.06;;;17.13;61.33
10518;BME280;5307;42.548;22.968;2023-05-09T06:54:01;94065.75;;;16.51;60.19
10518;BME280;5307;42.548;22.968;2023-05-09T06:56:28;94065.81;;;16.92;59.95
10518;BME280;5307;42.548;22.968;2023-05-09T06:58:55;94064.56;;;17.39;59.86
10518;BME280;5307;42.548;22.968;2023-05-09T07:01:22;94065.66;;;17.47;59.15
10518;BME280;5307;42.548;22.968;2023-05-09T07:03:49;94063.38;;;16.79;61.13
10518;BME280;5307;42.548;22.968;2023-05-09T07:06:16;94056.34;;;17.45;60.32
10518;BME280;5307;42.548;22.968;2023-05-09T07:08:43;94061.72;;;17.08;60.52
10518;BME280;5307;42.548;22.968;2023-05-09T07:11:11;94058.31;;;17.91;60.23
10518;BME280;5307;42.548;22.968;2023-05-09T07:13:38;94058.94;;;17.54;60.08
10518;BME280;5307;42.548;22.968;2023-05-09T07:16:05;94059.38;;;17.99;61.97
10518;BME280;5307;42.548;22.968;2023-05-09T07:18:32;94062.06;;;17.41;60.18
10518;BME280;5307;42.548;22.968;2023-05-09T07:20:59;94061.59;;;17.95;58.70
10518;BME280;5307;42.548;22.968;2023-05-09T07:23:25;94053.66;;;17.30;59.40
10518;BME280;5307;42.548;22.968;2023-05-09T07:25:55;94056.34;;;17.71;59.19
10518;BME280;5307;42.548;22.968;2023-05-09T07:28:25;94046.78;;;17.98;58.57
10518;BME280;5307;42.548;22.968;2023-05-09T07:30:54;94044.06;;;18.72;58.50
10518;BME280;5307;42.548;22.968;2023-05-09T07:33:20;94057.59;;;18.64;57.09
10518;BME280;5307;42.548;22.968;2023-05-09T07:35:47;94054.44;;;18.14;57.37
10518;BME280;5307;42.548;22.968;2023-05-09T07:38:14;94048.22;;;17.36;58.91
10518;BME280;5307;42.548;22.968;2023-05-09T07:40:41;94052.41;;;17.05;59.66
10518;BME280;5307;42.548;22.968;2023-05-09T07:43:08;94061.06;;;17.39;60.54
10518;BME280;5307;42.548;22.968;2023-05-09T07:45:36;94048.22;;;16.69;62.14
10518;BME280;5307;42.548;22.968;2023-05-09T07:48:04;94051.44;;;16.88;62.11
10518;BME280;5307;42.548;22.968;2023-05-09T07:50:33;94048.06;;;16.99;62.83
10518;BME280;5307;42.548;22.968;2023-05-09T07:52:59;94049.53;;;16.59;64.01
10518;BME280;5307;42.548;22.968;2023-05-09T07:55:26;94042.75;;;16.75;63.17
10518;BME280;5307;42.548;22.968;2023-05-09T07:57:53;94055.03;;;16.39;64.53
10518;BME280;5307;42.548;22.968;2023-05-09T08:00:20;94029.97;;;16.57;65.34
10518;BME280;5307;42.548;22.968;2023-05-09T08:02:49;94058.53;;;16.74;64.59
10518;BME280;5307;42.548;22.968;2023-05-09T08:05:17;94052.72;;;16.17;64.69
10518;BME280;5307;42.548;22.968;2023-05-09T08:07:44;94044.03;;;16.59;64.35
10518;BME280;5307;42.548;22.968;2023-05-09T08:10:11;94058.13;;;17.02;64.01
10518;BME280;5307;42.548;22.968;2023-05-09T08:12:38;94053.81;;;16.40;63.20
10518;BME280;5307;42.548;22.968;2023-05-09T08:15:06;94053.53;;;16.38;65.95
10518;BME280;5307;42.548;22.968;2023-05-09T08:17:33;94060.34;;;17.18;64.70
10518;BME280;5307;42.548;22.968;2023-05-09T08:20:01;94059.38;;;16.80;64.26
10518;BME280;5307;42.548;22.968;2023-05-09T08:22:29;94060.94;;;16.67;62.96
10518;BME280;5307;42.548;22.968;2023-05-09T08:24:56;94048.50;;;16.36;63.55
10518;BME280;5307;42.548;22.968;2023-05-09T08:27:23;94050.38;;;16.10;64.32
10518;BME280;5307;42.548;22.968;2023-05-09T08:29:50;94055.09;;;16.44;63.52
10518;BME280;5307;42.548;22.968;2023-05-09T08:32:17;94054.66;;;16.31;65.61
10518;BME280;5307;42.548;22.968;2023-05-09T08:34:44;94057.63;;;16.62;64.76
10518;BME280;5307;42.548;22.968;2023-05-09T08:37:12;94057.31;;;16.40;63.39
10518;BME280;5307;42.548;22.968;2023-05-09T08:39:39;94053.50;;;16.02;64.72
10518;BME280;5307;42.548;22.968;2023-05-09T08:42:06;94052.84;;;16.43;62.18
10518;BME280;5307;42.548;22.968;2023-05-09T08:44:34;94040.09;;;16.45;63.19
10518;BME280;5307;42.548;22.968;2023-05-09T08:47:02;94051.44;;;16.88;63.01
10518;BME280;5307;42.548;22.968;2023-05-09T08:49:29;94045.50;;;17.15;61.20
10518;BME280;5307;42.548;22.968;2023-05-09T08:51:56;94043.78;;;17.44;61.25
10518;BME280;5307;42.548;22.968;2023-05-09T08:54:24;94039.22;;;17.41;58.77
10518;BME280;5307;42.548;22.968;2023-05-09T08:56:51;94042.03;;;17.98;58.39
10518;BME280;5307;42.548;22.968;2023-05-09T08:59:18;94042.25;;;17.43;58.32
10518;BME280;5307;42.548;22.968;2023-05-09T09:01:45;94036.16;;;18.17;56.72
10518;BME280;5307;42.548;22.968;2023-05-09T09:04:12;94040.97;;;18.64;57.06
10518;BME280;5307;42.548;22.968;2023-05-09T09:06:39;94038.91;;;17.85;57.55
10518;BME280;5307;42.548;22.968;2023-05-09T09:09:07;94038.75;;;17.68;56.25
10518;BME280;5307;42.548;22.968;2023-05-09T09:11:36;94037.38;;;17.84;57.52
10518;BME280;5307;42.548;22.968;2023-05-09T09:14:08;94031.53;;;18.02;57.16
10518;BME280;5307;42.548;22.968;2023-05-09T09:16:37;94026.63;;;17.60;57.70
10518;BME280;5307;42.548;22.968;2023-05-09T09:19:10;94024.16;;;16.90;59.32
10518;BME280;5307;42.548;22.968;2023-05-09T09:21:39;94018.22;;;17.23;59.70
10518;BME280;5307;42.548;22.968;2023-05-09T09:24:07;94027.38;;;17.35;58.91
10518;BME280;5307;42.548;22.968;2023-05-09T09:26:33;94023.00;;;17.02;55.99
10518;BME280;5307;42.548;22.968;2023-05-09T09:29:02;94031.50;;;17.19;58.96
10518;BME280;5307;42.548;22.968;2023-05-09T09:31:30;94015.47;;;16.77;58.50
10518;BME280;5307;42.548;22.968;2023-05-09T09:34:01;94030.16;;;16.68;59.34
10518;BME280;5307;42.548;22.968;2023-05-09T09:36:29;94030.16;;;16.33;61.41
10518;BME280;5307;42.548;22.968;2023-05-09T09:38:58;94019.41;;;16.00;62.45
10518;BME280;5307;42.548;22.968;2023-05-09T09:41:32;94023.53;;;16.25;62.04
10518;BME280;5307;42.548;22.968;2023-05-09T09:44:06;94027.28;;;16.62;59.39
10518;BME280;5307;42.548;22.968;2023-05-09T09:46:40;94017.22;;;17.00;57.07
10518;BME280;5307;42.548;22.968;2023-05-09T09:49:08;94020.84;;;17.32;59.00
10518;BME280;5307;42.548;22.968;2023-05-09T09:51:35;94017.78;;;17.04;55.23
10518;BME280;5307;42.548;22.968;2023-05-09T09:54:02;94020.78;;;17.27;55.92
10518;BME280;5307;42.548;22.968;2023-05-09T09:56:41;94016.28;;;16.83;57.88
10518;BME280;5307;42.548;22.968;2023-05-09T09:59:10;94015.03;;;16.84;59.78
10518;BME280;5307;42.548;22.968;2023-05-09T10:01:54;94017.91;;;16.34;61.78
10518;BME280;5307;42.548;22.968;2023-05-09T10:04:21;94011.91;;;16.56;62.92
10518;BME280;5307;42.548;22.968;2023-05-09T10:06:52;94018.50;;;16.23;62.90
10518;BME280;5307;42.548;22.968;2023-05-09T10:09:20;94011.56;;;16.48;64.30
10518;BME280;5307;42.548;22.968;2023-05-09T10:11:49;94012.03;;;16.47;63.62
10518;BME280;5307;42.548;22.968;2023-05-09T10:14:18;94012.06;;;16.12;62.46
10518;BME280;5307;42.548;22.968;2023-05-09T10:16:47;94011.53;;;16.28;61.15
10518;BME280;5307;42.548;22.968;2023-05-09T10:19:17;94017.75;;;16.23;61.81
10518;BME280;5307;42.548;22.968;2023-05-09T10:21:48;94015.47;;;16.21;61.55
10518;BME280;5307;42.548;22.968;2023-05-09T10:24:17;94009.47;;;16.23;62.92
10518;BME280;5307;42.548;22.968;2023-05-09T10:26:49;94011.50;;;16.08;63.72
10518;BME280;5307;42.548;22.968;2023-05-09T10:29:22;94014.78;;;16.26;63.63
10518;BME280;5307;42.548;22.968;2023-05-09T10:31:53;94013.31;;;16.11;61.72
10518;BME280;5307;42.548;22.968;2023-05-09T10:34:24;94019.84;;;15.78;62.62
10518;BME280;5307;42.548;22.968;2023-05-09T10:36:52;94020.97;;;15.71;63.05
10518;BME280;5307;42.548;22.968;2023-05-09T10:39:21;94026.13;;;15.64;64.01
10518;BME280;5307;42.548;22.968;2023-05-09T10:41:49;94003.88;;;15.82;64.69
10518;BME280;5307;42.548;22.968;2023-05-09T10:44:16;94020.88;;;15.66;63.61
10518;BME280;5307;42.548;22.968;2023-05-09T10:46:45;94010.78;;;15.48;63.64
10518;BME280;5307;42.548;22.968;2023-05-09T10:49:12;94024.38;;;15.52;64.04
10518;BME280;5307;42.548;22.968;2023-05-09T10:51:39;94010.97;;;15.44;63.37
10518;BME280;5307;42.548;22.968;2023-05-09T10:54:13;94018.41;;;15.68;63.54
10518;BME280;5307;42.548;22.968;2023-05-09T10:56:40;94013.25;;;15.90;61.54
10518;BME280;5307;42.548;22.968;2023-05-09T10:59:31;94013.91;;;15.85;60.22
10518;BME280;5307;42.548;22.968;2023-05-09T11:01:59;94010.38;;;15.99;60.60
10518;BME280;5307;42.548;22.968;2023-05-09T11:04:28;94013.69;;;16.03;61.99
10518;BME280;5307;42.548;22.968;2023-05-09T11:06:55;94014.66;;;16.00;61.44
10518;BME280;5307;42.548;22.968;2023-05-09T11:09:23;94019.06;;;15.92;62.55
10518;BME280;5307;42.548;22.968;2023-05-09T11:11:53;94009.28;;;15.91;61.46
10518;BME280;5307;42.548;22.968;2023-05-09T11:14:37;94015.34;;;15.95;61.11
10518;BME280;5307;42.548;22.968;2023-05-09T11:17:07;94022.31;;;16.11;64.17
10518;BME280;5307;42.548;22.968;2023-05-09T11:19:36;94012.44;;;16.04;61.64
10518;BME280;5307;42.548;22.968;2023-05-09T11:22:14;94013.69;;;16.03;61.45
10518;BME280;5307;42.548;22.968;2023-05-09T11:24:43;94013.84;;;16.15;61.35
10518;BME280;5307;42.548;22.968;2023-05-09T11:27:15;94021.25;;;15.73;59.95
10518;BME280;5307;42.548;22.968;2023-05-09T11:29:43;94017.22;;;15.89;59.59
10518;BME280;5307;42.548;22.968;2023-05-09T11:32:14;94020.00;;;15.89;59.33
10518;BME280;5307;42.548;22.968;2023-05-09T11:34:48;94011.09;;;15.80;58.72
10518;BME280;5307;42.548;22.968;2023-05-09T11:37:16;94015.91;;;15.55;62.71
10518;BME280;5307;42.548;22.968;2023-05-09T11:39:56;94030.72;;;15.43;65.70
10518;BME280;5307;42.548;22.968;2023-05-09T11:46:05;94011.75;;;15.60;67.90
10518;BME280;5307;42.548;22.968;2023-05-09T11:48:37;94004.72;;;15.59;66.43
10518;BME280;5307;42.548;22.968;2023-05-09T11:51:04;94004.81;;;15.20;66.00
10518;BME280;5307;42.548;22.968;2023-05-09T11:53:32;94007.59;;;15.79;66.65
10518;BME280;5307;42.548;22.968;2023-05-09T11:56:01;93994.44;;;15.89;64.18
10518;BME280;5307;42.548;22.968;2023-05-09T11:58:28;93998.13;;;16.00;66.67
10518;BME280;5307;42.548;22.968;2023-05-09T12:00:56;93992.13;;;16.02;67.38
10518;BME280;5307;42.548;22.968;2023-05-09T12:03:23;94004.06;;;16.14;66.11
10518;BME280;5307;42.548;22.968;2023-05-09T12:05:53;93994.56;;;16.15;65.57
10518;BME280;5307;42.548;22.968;2023-05-09T12:08:21;94003.97;;;15.73;65.17
10518;BME280;5307;42.548;22.968;2023-05-09T12:10:48;93996.84;;;16.16;64.60
10518;BME280;5307;42.548;22.968;2023-05-09T12:13:15;93996.44;;;16.23;63.06
10518;BME280;5307;42.548;22.968;2023-05-09T12:15:43;93989.50;;;15.93;63.18
10518;BME280;5307;42.548;22.968;2023-05-09T12:18:10;93993.97;;;15.90;63.67
10518;BME280;5307;42.548;22.968;2023-05-09T12:20:41;93989.25;;;15.91;63.91
10518;BME280;5307;42.548;22.968;2023-05-09T12:23:11;93989.38;;;16.02;63.78
10518;BME280;5307;42.548;22.968;2023-05-09T12:25:38;93991.72;;;15.74;63.17
10518;BME280;5307;42.548;22.968;2023-05-09T12:28:05;93977.47;;;16.11;63.69
10518;BME280;5307;42.548;22.968;2023-05-09T12:30:32;93968.47;;;15.60;63.22
10518;BME280;5307;42.548;22.968;2023-05-09T12:32:59;93977.38;;;15.70;64.33
10518;BME280;5307;42.548;22.968;2023-05-09T12:35:26;93983.72;;;15.76;63.93
10518;BME280;5307;42.548;22.968;2023-05-09T12:37:54;93976.84;;;15.66;63.21
10518;BME280;5307;42.548;22.968;2023-05-09T12:40:23;93973.09;;;15.84;64.63
10518;BME280;5307;42.548;22.968;2023-05-09T12:42:50;93975.59;;;15.67;63.93
10518;BME280;5307;42.548;22.968;2023-05-09T12:45:21;93974.34;;;15.68;64.24
10518;BME280;5307;42.548;22.968;2023-05-09T12:47:50;93969.97;;;15.76;63.75
10518;BME280;5307;42.548;22.968;2023-05-09T12:50:18;93972.44;;;15.74;64.17
10518;BME280;5307;42.548;22.968;2023-05-09T12:52:50;93969.41;;;15.42;63.89
10518;BME280;5307;42.548;22.968;2023-05-09T12:55:18;93965.72;;;15.45;63.20
10518;BME280;5307;42.548;22.968;2023-05-09T12:57:58;93964.28;;;15.50;64.49
10518;BME280;5307;42.548;22.968;2023-05-09T13:00:25;93964.75;;;15.78;64.38
10518;BME280;5307;42.548;22.968;2023-05-09T13:02:52;93964.09;;;15.54;65.67
10518;BME280;5307;42.548;22.968;2023-05-09T13:05:20;93966.66;;;15.42;64.79
10518;BME280;5307;42.548;22.968;2023-05-09T13:07:48;93958.59;;;15.54;65.25
10518;BME280;5307;42.548;22.968;2023-05-09T13:10:18;93953.13;;;15.24;66.24
10518;BME280;5307;42.548;22.968;2023-05-09T13:12:46;93959.91;;;15.73;66.29
10518;BME280;5307;42.548;22.968;2023-05-09T13:15:16;93957.56;;;15.51;67.93